sensor_id;sensor_type;location;lat;lon;timestamp;P1;durP1;ratioP1;P2;durP2;ratioP2
34767;SDS011;21755;43.608;1.236;2022-08-11T00:05:05;4.00;;;3.70;;
34767;SDS011;21755;43.608;1.236;2022-08-11T00:07:40;4.07;;;3.70;;
34767;SDS011;21755;43.608;1.236;2022-08-11T00:10:17;4.90;;;4.07;;
34767;SDS011;21755;43.608;1.236;2022-08-11T00:12:53;6.13;;;4.03;;
34767;SDS011;21755;43.608;1.236;2022-08-11T00:15:22;5.60;;;3.75;;
34767;SDS011;21755;43.608;1.236;2022-08-11T00:17:49;4.60;;;3.70;;
34767;SDS011;21755;43.608;1.236;2022-08-11T00:20:24;4.32;;;3.92;;
34767;SDS011;21755;43.608;1.236;2022-08-11T00:23:00;4.47;;;3.83;;
34767;SDS011;21755;43.608;1.236;2022-08-11T00:25:30;4.93;;;3.85;;
34767;SDS011;21755;43.608;1.236;2022-08-11T00:28:31;4.20;;;3.80;;
34767;SDS011;21755;43.608;1.236;2022-08-11T00:31:00;4.28;;;3.35;;
34767;SDS011;21755;43.608;1.236;2022-08-11T00:36:03;3.90;;;3.30;;
34767;SDS011;21755;43.608;1.236;2022-08-11T00:38:31;8.45;;;4.15;;
34767;SDS011;21755;43.608;1.236;2022-08-11T00:43:54;4.82;;;3.95;;
34767;SDS011;21755;43.608;1.236;2022-08-11T00:49:45;8.67;;;3.87;;
34767;SDS011;21755;43.608;1.236;2022-08-11T00:55:30;4.95;;;3.92;;
34767;SDS011;21755;43.608;1.236;2022-08-11T01:01:27;4.22;;;3.83;;
34767;SDS011;21755;43.608;1.236;2022-08-11T01:38:20;4.22;;;3.50;;
34767;SDS011;21755;43.608;1.236;2022-08-11T01:41:25;4.95;;;3.53;;
34767;SDS011;21755;43.608;1.236;2022-08-11T01:50:06;9.88;;;3.97;;
34767;SDS011;21755;43.608;1.236;2022-08-11T01:58:46;6.75;;;3.88;;
34767;SDS011;21755;43.608;1.236;2022-08-11T02:09:59;6.32;;;3.25;;
34767;SDS011;21755;43.608;1.236;2022-08-11T02:12:52;4.75;;;3.03;;
34767;SDS011;21755;43.608;1.236;2022-08-11T02:20:44;4.10;;;3.10;;
34767;SDS011;21755;43.608;1.236;2022-08-11T02:23:42;6.30;;;3.83;;
34767;SDS011;21755;43.608;1.236;2022-08-11T02:26:13;3.53;;;3.23;;
34767;SDS011;21755;43.608;1.236;2022-08-11T02:39:57;3.40;;;3.10;;
34767;SDS011;21755;43.608;1.236;2022-08-11T02:42:37;4.03;;;3.53;;
34767;SDS011;21755;43.608;1.236;2022-08-11T02:54:14;5.30;;;3.70;;
34767;SDS011;21755;43.608;1.236;2022-08-11T02:57:08;3.38;;;3.05;;
34767;SDS011;21755;43.608;1.236;2022-08-11T03:11:05;4.10;;;3.75;;
34767;SDS011;21755;43.608;1.236;2022-08-11T03:19:52;5.18;;;3.53;;
34767;SDS011;21755;43.608;1.236;2022-08-11T03:24:56;5.57;;;3.58;;
34767;SDS011;21755;43.608;1.236;2022-08-11T03:30:09;6.32;;;3.35;;
34767;SDS011;21755;43.608;1.236;2022-08-11T03:42:25;4.93;;;4.07;;
34767;SDS011;21755;43.608;1.236;2022-08-11T03:45:24;4.65;;;3.60;;
34767;SDS011;21755;43.608;1.236;2022-08-11T03:48:19;4.50;;;3.10;;
34767;SDS011;21755;43.608;1.236;2022-08-11T04:04:57;4.97;;;3.63;;
34767;SDS011;21755;43.608;1.236;2022-08-11T04:21:56;3.60;;;3.30;;
34767;SDS011;21755;43.608;1.236;2022-08-11T04:27:30;4.40;;;3.63;;
34767;SDS011;21755;43.608;1.236;2022-08-11T04:46:36;3.95;;;3.38;;
34767;SDS011;21755;43.608;1.236;2022-08-11T04:58:09;3.90;;;3.47;;
34767;SDS011;21755;43.608;1.236;2022-08-11T05:13:32;4.35;;;3.95;;
34767;SDS011;21755;43.608;1.236;2022-08-11T05:16:26;4.03;;;3.63;;
34767;SDS011;21755;43.608;1.236;2022-08-11T05:19:20;5.55;;;3.88;;
34767;SDS011;21755;43.608;1.236;2022-08-11T05:22:05;5.10;;;3.45;;
34767;SDS011;21755;43.608;1.236;2022-08-11T05:24:57;5.78;;;4.22;;
34767;SDS011;21755;43.608;1.236;2022-08-11T05:27:44;6.40;;;4.78;;
34767;SDS011;21755;43.608;1.236;2022-08-11T05:30:47;7.75;;;5.05;;
34767;SDS011;21755;43.608;1.236;2022-08-11T05:33:48;9.07;;;4.38;;
34767;SDS011;21755;43.608;1.236;2022-08-11T05:39:15;4.00;;;3.70;;
34767;SDS011;21755;43.608;1.236;2022-08-11T05:42:04;5.45;;;4.35;;
34767;SDS011;21755;43.608;1.236;2022-08-11T05:44:49;8.25;;;4.25;;
34767;SDS011;21755;43.608;1.236;2022-08-11T05:47:36;5.18;;;4.68;;
34767;SDS011;21755;43.608;1.236;2022-08-11T05:50:21;4.80;;;4.32;;
34767;SDS011;21755;43.608;1.236;2022-08-11T05:53:11;5.47;;;4.15;;
34767;SDS011;21755;43.608;1.236;2022-08-11T05:55:57;5.50;;;5.00;;
34767;SDS011;21755;43.608;1.236;2022-08-11T05:58:41;8.65;;;5.75;;
34767;SDS011;21755;43.608;1.236;2022-08-11T06:01:09;8.52;;;5.40;;
34767;SDS011;21755;43.608;1.236;2022-08-11T06:03:37;10.93;;;6.93;;
34767;SDS011;21755;43.608;1.236;2022-08-11T06:06:25;12.15;;;6.00;;
34767;SDS011;21755;43.608;1.236;2022-08-11T06:08:56;7.57;;;6.15;;
34767;SDS011;21755;43.608;1.236;2022-08-11T06:11:23;9.00;;;7.30;;
34767;SDS011;21755;43.608;1.236;2022-08-11T06:13:50;13.75;;;8.15;;
34767;SDS011;21755;43.608;1.236;2022-08-11T06:16:21;13.05;;;7.28;;
34767;SDS011;21755;43.608;1.236;2022-08-11T06:18:49;12.82;;;8.77;;
34767;SDS011;21755;43.608;1.236;2022-08-11T06:21:16;14.88;;;7.63;;
34767;SDS011;21755;43.608;1.236;2022-08-11T06:23:43;9.65;;;8.13;;
34767;SDS011;21755;43.608;1.236;2022-08-11T06:26:10;10.60;;;8.02;;
34767;SDS011;21755;43.608;1.236;2022-08-11T06:28:44;11.75;;;8.25;;
34767;SDS011;21755;43.608;1.236;2022-08-11T06:31:12;11.70;;;7.63;;
34767;SDS011;21755;43.608;1.236;2022-08-11T06:34:06;9.57;;;8.32;;
34767;SDS011;21755;43.608;1.236;2022-08-11T06:36:45;16.17;;;8.60;;
34767;SDS011;21755;43.608;1.236;2022-08-11T06:39:21;17.63;;;8.27;;
34767;SDS011;21755;43.608;1.236;2022-08-11T06:42:06;18.00;;;7.80;;
34767;SDS011;21755;43.608;1.236;2022-08-11T06:45:39;14.90;;;8.32;;
34767;SDS011;21755;43.608;1.236;2022-08-11T06:47:40;8.57;;;7.40;;
34767;SDS011;21755;43.608;1.236;2022-08-11T06:50:09;10.20;;;8.05;;
34767;SDS011;21755;43.608;1.236;2022-08-11T06:52:58;10.85;;;7.50;;
34767;SDS011;21755;43.608;1.236;2022-08-11T06:55:26;11.68;;;7.22;;
34767;SDS011;21755;43.608;1.236;2022-08-11T06:58:12;9.20;;;6.97;;
34767;SDS011;21755;43.608;1.236;2022-08-11T07:01:08;10.43;;;7.20;;
34767;SDS011;21755;43.608;1.236;2022-08-11T07:03:45;12.23;;;6.50;;
34767;SDS011;21755;43.608;1.236;2022-08-11T07:09:08;12.10;;;6.78;;
34767;SDS011;21755;43.608;1.236;2022-08-11T07:12:48;6.77;;;6.07;;
34767;SDS011;21755;43.608;1.236;2022-08-11T07:15:31;8.70;;;6.22;;
34767;SDS011;21755;43.608;1.236;2022-08-11T07:18:05;7.47;;;6.78;;
34767;SDS011;21755;43.608;1.236;2022-08-11T07:20:53;7.15;;;6.45;;
34767;SDS011;21755;43.608;1.236;2022-08-11T07:23:52;6.18;;;5.57;;
34767;SDS011;21755;43.608;1.236;2022-08-11T07:26:38;7.45;;;6.63;;
34767;SDS011;21755;43.608;1.236;2022-08-11T07:29:28;7.90;;;5.68;;
34767;SDS011;21755;43.608;1.236;2022-08-11T07:31:57;12.20;;;6.47;;
34767;SDS011;21755;43.608;1.236;2022-08-11T07:36:59;10.48;;;6.10;;
34767;SDS011;21755;43.608;1.236;2022-08-11T07:39:33;8.85;;;5.90;;
34767;SDS011;21755;43.608;1.236;2022-08-11T07:42:09;11.10;;;5.95;;
34767;SDS011;21755;43.608;1.236;2022-08-11T07:44:39;8.48;;;5.90;;
34767;SDS011;21755;43.608;1.236;2022-08-11T07:47:25;5.97;;;5.32;;
34767;SDS011;21755;43.608;1.236;2022-08-11T07:50:11;6.28;;;5.68;;
34767;SDS011;21755;43.608;1.236;2022-08-11T07:52:57;9.77;;;6.03;;
34767;SDS011;21755;43.608;1.236;2022-08-11T07:55:24;9.32;;;5.10;;
34767;SDS011;21755;43.608;1.236;2022-08-11T07:57:56;10.37;;;5.40;;
34767;SDS011;21755;43.608;1.236;2022-08-11T08:00:46;8.35;;;6.32;;
34767;SDS011;21755;43.608;1.236;2022-08-11T08:03:32;5.90;;;5.30;;
34767;SDS011;21755;43.608;1.236;2022-08-11T08:06:17;9.40;;;5.30;;
34767;SDS011;21755;43.608;1.236;2022-08-11T08:09:02;5.55;;;5.05;;
34767;SDS011;21755;43.608;1.236;2022-08-11T08:11:49;8.23;;;5.80;;
34767;SDS011;21755;43.608;1.236;2022-08-11T08:14:34;9.13;;;5.47;;
34767;SDS011;21755;43.608;1.236;2022-08-11T08:17:20;9.18;;;5.68;;
34767;SDS011;21755;43.608;1.236;2022-08-11T08:20:07;8.07;;;5.70;;
34767;SDS011;21755;43.608;1.236;2022-08-11T08:22:37;10.93;;;5.57;;
34767;SDS011;21755;43.608;1.236;2022-08-11T08:25:04;7.88;;;5.53;;
34767;SDS011;21755;43.608;1.236;2022-08-11T08:27:31;6.00;;;5.50;;
34767;SDS011;21755;43.608;1.236;2022-08-11T08:30:07;5.90;;;5.30;;
34767;SDS011;21755;43.608;1.236;2022-08-11T08:32:52;7.53;;;5.50;;
34767;SDS011;21755;43.608;1.236;2022-08-11T08:35:22;5.70;;;4.43;;
34767;SDS011;21755;43.608;1.236;2022-08-11T08:37:48;9.95;;;4.63;;
34767;SDS011;21755;43.608;1.236;2022-08-11T08:40:15;8.25;;;5.22;;
34767;SDS011;21755;43.608;1.236;2022-08-11T08:42:51;5.50;;;5.00;;
34767;SDS011;21755;43.608;1.236;2022-08-11T08:45:20;11.40;;;5.38;;
34767;SDS011;21755;43.608;1.236;2022-08-11T08:47:50;5.85;;;5.03;;
34767;SDS011;21755;43.608;1.236;2022-08-11T08:50:26;7.82;;;5.38;;
34767;SDS011;21755;43.608;1.236;2022-08-11T08:53:15;7.72;;;4.90;;
34767;SDS011;21755;43.608;1.236;2022-08-11T08:55:45;7.38;;;5.60;;
34767;SDS011;21755;43.608;1.236;2022-08-11T08:58:14;5.72;;;5.13;;
34767;SDS011;21755;43.608;1.236;2022-08-11T09:00:44;6.90;;;5.00;;
34767;SDS011;21755;43.608;1.236;2022-08-11T09:03:12;10.27;;;5.68;;
34767;SDS011;21755;43.608;1.236;2022-08-11T09:05:39;6.43;;;5.45;;
34767;SDS011;21755;43.608;1.236;2022-08-11T09:08:05;5.13;;;4.60;;
34767;SDS011;21755;43.608;1.236;2022-08-11T09:10:32;5.60;;;5.20;;
34767;SDS011;21755;43.608;1.236;2022-08-11T09:12:59;5.63;;;4.85;;
34767;SDS011;21755;43.608;1.236;2022-08-11T09:15:27;7.38;;;5.20;;
34767;SDS011;21755;43.608;1.236;2022-08-11T09:17:55;6.05;;;4.75;;
34767;SDS011;21755;43.608;1.236;2022-08-11T09:20:35;9.20;;;5.07;;
34767;SDS011;21755;43.608;1.236;2022-08-11T09:23:07;6.55;;;5.18;;
34767;SDS011;21755;43.608;1.236;2022-08-11T09:25:52;6.57;;;4.57;;
34767;SDS011;21755;43.608;1.236;2022-08-11T09:28:43;5.53;;;4.93;;
34767;SDS011;21755;43.608;1.236;2022-08-11T09:31:10;9.10;;;4.93;;
34767;SDS011;21755;43.608;1.236;2022-08-11T09:33:37;5.10;;;4.70;;
34767;SDS011;21755;43.608;1.236;2022-08-11T09:36:05;6.28;;;5.05;;
34767;SDS011;21755;43.608;1.236;2022-08-11T09:38:51;5.15;;;4.65;;
34767;SDS011;21755;43.608;1.236;2022-08-11T09:41:36;5.72;;;4.95;;
34767;SDS011;21755;43.608;1.236;2022-08-11T09:44:04;5.65;;;4.45;;
34767;SDS011;21755;43.608;1.236;2022-08-11T09:46:51;9.48;;;4.90;;
34767;SDS011;21755;43.608;1.236;2022-08-11T09:49:19;5.22;;;4.72;;
34767;SDS011;21755;43.608;1.236;2022-08-11T09:51:46;5.43;;;4.40;;
34767;SDS011;21755;43.608;1.236;2022-08-11T09:54:14;7.97;;;4.85;;
34767;SDS011;21755;43.608;1.236;2022-08-11T09:56:41;7.72;;;4.80;;
34767;SDS011;21755;43.608;1.236;2022-08-11T09:59:26;9.13;;;4.20;;
34767;SDS011;21755;43.608;1.236;2022-08-11T10:01:59;4.50;;;4.10;;
34767;SDS011;21755;43.608;1.236;2022-08-11T10:04:30;6.70;;;4.70;;
34767;SDS011;21755;43.608;1.236;2022-08-11T10:07:04;7.53;;;4.60;;
34767;SDS011;21755;43.608;1.236;2022-08-11T10:12:32;5.82;;;4.30;;
34767;SDS011;21755;43.608;1.236;2022-08-11T10:15:02;8.50;;;4.57;;
34767;SDS011;21755;43.608;1.236;2022-08-11T10:17:52;4.53;;;4.13;;
34767;SDS011;21755;43.608;1.236;2022-08-11T10:20:44;5.78;;;4.70;;
34767;SDS011;21755;43.608;1.236;2022-08-11T10:23:14;6.85;;;5.15;;
34767;SDS011;21755;43.608;1.236;2022-08-11T10:25:59;5.63;;;4.65;;
34767;SDS011;21755;43.608;1.236;2022-08-11T10:28:45;7.72;;;4.47;;
34767;SDS011;21755;43.608;1.236;2022-08-11T10:31:12;8.18;;;4.30;;
34767;SDS011;21755;43.608;1.236;2022-08-11T10:33:57;9.50;;;4.72;;
34767;SDS011;21755;43.608;1.236;2022-08-11T10:36:39;5.97;;;4.85;;
34767;SDS011;21755;43.608;1.236;2022-08-11T10:39:16;6.57;;;4.80;;
34767;SDS011;21755;43.608;1.236;2022-08-11T10:41:44;4.82;;;4.43;;
34767;SDS011;21755;43.608;1.236;2022-08-11T10:44:40;5.70;;;4.75;;
34767;SDS011;21755;43.608;1.236;2022-08-11T10:47:09;7.10;;;4.40;;
34767;SDS011;21755;43.608;1.236;2022-08-11T10:49:56;7.30;;;4.38;;
34767;SDS011;21755;43.608;1.236;2022-08-11T10:52:41;7.63;;;4.35;;
34767;SDS011;21755;43.608;1.236;2022-08-11T10:55:27;5.97;;;4.22;;
34767;SDS011;21755;43.608;1.236;2022-08-11T10:58:12;4.68;;;4.28;;
34767;SDS011;21755;43.608;1.236;2022-08-11T11:00:56;7.05;;;4.40;;
34767;SDS011;21755;43.608;1.236;2022-08-11T11:03:25;5.80;;;4.05;;
34767;SDS011;21755;43.608;1.236;2022-08-11T11:05:53;6.43;;;4.72;;
34767;SDS011;21755;43.608;1.236;2022-08-11T11:08:35;4.93;;;4.40;;
34767;SDS011;21755;43.608;1.236;2022-08-11T11:11:18;7.75;;;4.38;;
34767;SDS011;21755;43.608;1.236;2022-08-11T11:13:50;4.65;;;4.18;;
34767;SDS011;21755;43.608;1.236;2022-08-11T11:16:35;6.25;;;4.25;;
34767;SDS011;21755;43.608;1.236;2022-08-11T11:19:23;4.63;;;4.22;;
34767;SDS011;21755;43.608;1.236;2022-08-11T11:21:51;6.38;;;4.80;;
34767;SDS011;21755;43.608;1.236;2022-08-11T11:27:24;5.40;;;4.68;;
34767;SDS011;21755;43.608;1.236;2022-08-11T11:30:08;6.38;;;4.10;;
34767;SDS011;21755;43.608;1.236;2022-08-11T11:32:41;6.10;;;3.83;;
34767;SDS011;21755;43.608;1.236;2022-08-11T11:35:24;4.53;;;4.13;;
34767;SDS011;21755;43.608;1.236;2022-08-11T11:37:54;11.40;;;4.13;;
34767;SDS011;21755;43.608;1.236;2022-08-11T11:40:22;4.85;;;4.18;;
34767;SDS011;21755;43.608;1.236;2022-08-11T11:42:50;6.63;;;3.90;;
34767;SDS011;21755;43.608;1.236;2022-08-11T11:45:18;6.25;;;4.15;;
34767;SDS011;21755;43.608;1.236;2022-08-11T11:47:46;5.22;;;3.50;;
34767;SDS011;21755;43.608;1.236;2022-08-11T11:50:17;5.97;;;4.60;;
34767;SDS011;21755;43.608;1.236;2022-08-11T11:52:55;6.57;;;4.03;;
34767;SDS011;21755;43.608;1.236;2022-08-11T11:55:23;8.63;;;4.43;;
34767;SDS011;21755;43.608;1.236;2022-08-11T11:57:53;7.40;;;4.40;;
34767;SDS011;21755;43.608;1.236;2022-08-11T12:00:39;5.63;;;4.13;;
34767;SDS011;21755;43.608;1.236;2022-08-11T12:03:26;5.55;;;4.00;;
34767;SDS011;21755;43.608;1.236;2022-08-11T12:05:52;4.05;;;3.75;;
34767;SDS011;21755;43.608;1.236;2022-08-11T12:08:18;4.13;;;3.83;;
34767;SDS011;21755;43.608;1.236;2022-08-11T12:10:52;4.32;;;3.97;;
34767;SDS011;21755;43.608;1.236;2022-08-11T12:13:40;9.73;;;4.40;;
34767;SDS011;21755;43.608;1.236;2022-08-11T12:16:08;7.53;;;4.40;;
34767;SDS011;21755;43.608;1.236;2022-08-11T12:18:35;4.25;;;3.70;;
34767;SDS011;21755;43.608;1.236;2022-08-11T12:21:03;6.80;;;4.05;;
34767;SDS011;21755;43.608;1.236;2022-08-11T12:23:31;4.97;;;4.47;;
34767;SDS011;21755;43.608;1.236;2022-08-11T12:26:18;6.72;;;4.00;;
34767;SDS011;21755;43.608;1.236;2022-08-11T12:29:04;8.30;;;4.22;;
34767;SDS011;21755;43.608;1.236;2022-08-11T12:31:32;6.55;;;4.05;;
34767;SDS011;21755;43.608;1.236;2022-08-11T12:34:00;9.95;;;4.45;;
34767;SDS011;21755;43.608;1.236;2022-08-11T12:36:28;7.60;;;4.30;;
34767;SDS011;21755;43.608;1.236;2022-08-11T12:38:59;7.18;;;4.45;;
34767;SDS011;21755;43.608;1.236;2022-08-11T12:41:29;6.25;;;4.32;;
34767;SDS011;21755;43.608;1.236;2022-08-11T12:44:15;6.35;;;4.75;;
34767;SDS011;21755;43.608;1.236;2022-08-11T12:47:00;6.28;;;4.57;;
34767;SDS011;21755;43.608;1.236;2022-08-11T12:49:28;8.25;;;4.75;;
34767;SDS011;21755;43.608;1.236;2022-08-11T12:52:27;8.00;;;4.68;;
34767;SDS011;21755;43.608;1.236;2022-08-11T12:57:45;6.40;;;4.30;;
34767;SDS011;21755;43.608;1.236;2022-08-11T13:00:31;6.68;;;4.20;;
34767;SDS011;21755;43.608;1.236;2022-08-11T13:03:17;5.10;;;4.65;;
34767;SDS011;21755;43.608;1.236;2022-08-11T13:06:03;5.35;;;3.85;;
34767;SDS011;21755;43.608;1.236;2022-08-11T13:08:32;5.88;;;4.70;;
34767;SDS011;21755;43.608;1.236;2022-08-11T13:10:59;5.47;;;4.78;;
34767;SDS011;21755;43.608;1.236;2022-08-11T13:13:45;10.82;;;5.28;;
34767;SDS011;21755;43.608;1.236;2022-08-11T13:16:13;6.65;;;4.60;;
34767;SDS011;21755;43.608;1.236;2022-08-11T13:18:41;5.55;;;4.63;;
34767;SDS011;21755;43.608;1.236;2022-08-11T13:21:11;4.70;;;4.28;;
34767;SDS011;21755;43.608;1.236;2022-08-11T13:23:38;5.97;;;4.93;;
34767;SDS011;21755;43.608;1.236;2022-08-11T13:26:05;5.07;;;4.68;;
34767;SDS011;21755;43.608;1.236;2022-08-11T13:28:33;5.07;;;4.60;;
34767;SDS011;21755;43.608;1.236;2022-08-11T13:31:03;6.82;;;4.70;;
34767;SDS011;21755;43.608;1.236;2022-08-11T13:33:53;7.00;;;4.93;;
34767;SDS011;21755;43.608;1.236;2022-08-11T13:36:21;5.18;;;4.78;;
34767;SDS011;21755;43.608;1.236;2022-08-11T13:38:51;8.15;;;5.40;;
34767;SDS011;21755;43.608;1.236;2022-08-11T13:41:20;7.93;;;5.47;;
34767;SDS011;21755;43.608;1.236;2022-08-11T13:44:07;6.28;;;5.00;;
34767;SDS011;21755;43.608;1.236;2022-08-11T13:46:36;9.70;;;4.82;;
34767;SDS011;21755;43.608;1.236;2022-08-11T13:49:07;5.53;;;5.05;;
34767;SDS011;21755;43.608;1.236;2022-08-11T13:51:34;7.88;;;4.60;;
34767;SDS011;21755;43.608;1.236;2022-08-11T13:54:03;10.20;;;5.07;;
34767;SDS011;21755;43.608;1.236;2022-08-11T13:56:30;7.35;;;4.65;;
34767;SDS011;21755;43.608;1.236;2022-08-11T13:58:58;6.30;;;4.50;;
34767;SDS011;21755;43.608;1.236;2022-08-11T14:01:30;9.50;;;4.43;;
34767;SDS011;21755;43.608;1.236;2022-08-11T14:06:29;8.75;;;5.10;;
34767;SDS011;21755;43.608;1.236;2022-08-11T14:08:56;4.90;;;4.47;;
34767;SDS011;21755;43.608;1.236;2022-08-11T14:11:23;8.75;;;5.30;;
34767;SDS011;21755;43.608;1.236;2022-08-11T14:14:24;10.57;;;4.38;;
34767;SDS011;21755;43.608;1.236;2022-08-11T14:16:57;5.97;;;4.88;;
34767;SDS011;21755;43.608;1.236;2022-08-11T14:19:29;10.32;;;4.82;;
34767;SDS011;21755;43.608;1.236;2022-08-11T14:21:57;8.75;;;4.80;;
34767;SDS011;21755;43.608;1.236;2022-08-11T14:24:35;9.85;;;4.88;;
34767;SDS011;21755;43.608;1.236;2022-08-11T14:27:06;8.38;;;5.00;;
34767;SDS011;21755;43.608;1.236;2022-08-11T14:29:34;5.82;;;4.07;;
34767;SDS011;21755;43.608;1.236;2022-08-11T14:32:04;6.07;;;4.72;;
34767;SDS011;21755;43.608;1.236;2022-08-11T14:34:32;5.03;;;4.63;;
34767;SDS011;21755;43.608;1.236;2022-08-11T14:37:00;5.70;;;5.00;;
34767;SDS011;21755;43.608;1.236;2022-08-11T14:39:39;6.65;;;4.88;;
34767;SDS011;21755;43.608;1.236;2022-08-11T14:42:09;10.00;;;4.65;;
34767;SDS011;21755;43.608;1.236;2022-08-11T14:45:01;5.15;;;4.65;;
34767;SDS011;21755;43.608;1.236;2022-08-11T14:47:52;9.18;;;4.65;;
34767;SDS011;21755;43.608;1.236;2022-08-11T14:50:22;5.97;;;5.30;;
34767;SDS011;21755;43.608;1.236;2022-08-11T14:52:55;5.38;;;4.90;;
34767;SDS011;21755;43.608;1.236;2022-08-11T14:55:28;5.57;;;4.78;;
34767;SDS011;21755;43.608;1.236;2022-08-11T14:58:16;6.47;;;4.70;;
34767;SDS011;21755;43.608;1.236;2022-08-11T15:00:43;6.35;;;5.20;;
34767;SDS011;21755;43.608;1.236;2022-08-11T15:03:10;6.93;;;4.80;;
34767;SDS011;21755;43.608;1.236;2022-08-11T15:05:45;6.55;;;4.47;;
34767;SDS011;21755;43.608;1.236;2022-08-11T15:08:13;7.57;;;4.60;;
34767;SDS011;21755;43.608;1.236;2022-08-11T15:10:40;6.10;;;5.40;;
34767;SDS011;21755;43.608;1.236;2022-08-11T15:13:07;5.93;;;5.05;;
34767;SDS011;21755;43.608;1.236;2022-08-11T15:15:34;9.80;;;5.10;;
34767;SDS011;21755;43.608;1.236;2022-08-11T15:18:21;5.70;;;4.68;;
34767;SDS011;21755;43.608;1.236;2022-08-11T15:20:49;7.38;;;4.70;;
34767;SDS011;21755;43.608;1.236;2022-08-11T15:23:33;10.52;;;5.10;;
34767;SDS011;21755;43.608;1.236;2022-08-11T15:26:20;5.95;;;5.45;;
34767;SDS011;21755;43.608;1.236;2022-08-11T15:29:22;6.13;;;5.22;;
34767;SDS011;21755;43.608;1.236;2022-08-11T15:32:08;9.45;;;4.50;;
34767;SDS011;21755;43.608;1.236;2022-08-11T15:34:57;5.75;;;4.85;;
34767;SDS011;21755;43.608;1.236;2022-08-11T15:37:44;5.38;;;4.90;;
34767;SDS011;21755;43.608;1.236;2022-08-11T15:40:15;7.13;;;4.97;;
34767;SDS011;21755;43.608;1.236;2022-08-11T15:43:09;5.95;;;4.95;;
34767;SDS011;21755;43.608;1.236;2022-08-11T15:45:59;7.45;;;5.15;;
34767;SDS011;21755;43.608;1.236;2022-08-11T15:51:12;6.47;;;5.00;;
34767;SDS011;21755;43.608;1.236;2022-08-11T15:53:52;8.50;;;4.93;;
34767;SDS011;21755;43.608;1.236;2022-08-11T15:56:22;7.05;;;5.93;;
34767;SDS011;21755;43.608;1.236;2022-08-11T15:58:54;5.93;;;5.03;;
34767;SDS011;21755;43.608;1.236;2022-08-11T16:01:41;8.93;;;5.60;;
34767;SDS011;21755;43.608;1.236;2022-08-11T16:04:28;9.60;;;5.13;;
34767;SDS011;21755;43.608;1.236;2022-08-11T16:07:04;8.18;;;5.22;;
34767;SDS011;21755;43.608;1.236;2022-08-11T16:09:43;5.72;;;5.28;;
34767;SDS011;21755;43.608;1.236;2022-08-11T16:12:15;5.95;;;5.28;;
34767;SDS011;21755;43.608;1.236;2022-08-11T16:14:45;7.03;;;5.55;;
34767;SDS011;21755;43.608;1.236;2022-08-11T16:17:43;7.63;;;5.28;;
34767;SDS011;21755;43.608;1.236;2022-08-11T16:20:13;5.72;;;5.28;;
34767;SDS011;21755;43.608;1.236;2022-08-11T16:22:43;6.13;;;5.60;;
34767;SDS011;21755;43.608;1.236;2022-08-11T16:25:22;8.38;;;5.50;;
34767;SDS011;21755;43.608;1.236;2022-08-11T16:27:56;9.05;;;5.65;;
34767;SDS011;21755;43.608;1.236;2022-08-11T16:30:28;5.88;;;5.07;;
34767;SDS011;21755;43.608;1.236;2022-08-11T16:32:56;6.68;;;5.07;;
34767;SDS011;21755;43.608;1.236;2022-08-11T16:35:23;6.07;;;5.47;;
34767;SDS011;21755;43.608;1.236;2022-08-11T16:38:09;7.90;;;5.53;;
34767;SDS011;21755;43.608;1.236;2022-08-11T16:40:57;8.30;;;5.32;;
34767;SDS011;21755;43.608;1.236;2022-08-11T16:43:28;9.35;;;5.10;;
34767;SDS011;21755;43.608;1.236;2022-08-11T16:46:16;6.40;;;5.80;;
34767;SDS011;21755;43.608;1.236;2022-08-11T16:48:44;5.75;;;5.10;;
34767;SDS011;21755;43.608;1.236;2022-08-11T16:51:12;6.95;;;5.43;;
34767;SDS011;21755;43.608;1.236;2022-08-11T16:53:39;8.57;;;5.07;;
34767;SDS011;21755;43.608;1.236;2022-08-11T16:56:08;10.85;;;5.38;;
34767;SDS011;21755;43.608;1.236;2022-08-11T16:58:38;7.90;;;5.28;;
34767;SDS011;21755;43.608;1.236;2022-08-11T17:01:25;7.40;;;4.95;;
34767;SDS011;21755;43.608;1.236;2022-08-11T17:03:57;5.88;;;5.30;;
34767;SDS011;21755;43.608;1.236;2022-08-11T17:06:47;6.30;;;5.05;;
34767;SDS011;21755;43.608;1.236;2022-08-11T17:09:33;5.80;;;5.05;;
34767;SDS011;21755;43.608;1.236;2022-08-11T17:12:19;7.15;;;4.78;;
34767;SDS011;21755;43.608;1.236;2022-08-11T17:15:08;8.98;;;5.32;;
34767;SDS011;21755;43.608;1.236;2022-08-11T17:17:57;5.50;;;4.78;;
34767;SDS011;21755;43.608;1.236;2022-08-11T17:20:25;4.97;;;4.50;;
34767;SDS011;21755;43.608;1.236;2022-08-11T17:22:53;5.22;;;4.70;;
34767;SDS011;21755;43.608;1.236;2022-08-11T17:25:38;4.93;;;4.50;;
34767;SDS011;21755;43.608;1.236;2022-08-11T17:28:05;8.45;;;4.97;;
34767;SDS011;21755;43.608;1.236;2022-08-11T17:30:31;7.75;;;5.15;;
34767;SDS011;21755;43.608;1.236;2022-08-11T17:33:16;8.93;;;5.25;;
34767;SDS011;21755;43.608;1.236;2022-08-11T17:36:02;8.13;;;5.30;;
34767;SDS011;21755;43.608;1.236;2022-08-11T17:38:29;5.88;;;5.35;;
34767;SDS011;21755;43.608;1.236;2022-08-11T17:40:59;6.20;;;4.70;;
34767;SDS011;21755;43.608;1.236;2022-08-11T17:43:45;5.43;;;4.68;;
34767;SDS011;21755;43.608;1.236;2022-08-11T17:46:31;7.40;;;5.57;;
34767;SDS011;21755;43.608;1.236;2022-08-11T17:49:17;7.40;;;5.28;;
34767;SDS011;21755;43.608;1.236;2022-08-11T17:51:45;6.47;;;5.50;;
34767;SDS011;21755;43.608;1.236;2022-08-11T17:54:32;9.27;;;5.82;;
34767;SDS011;21755;43.608;1.236;2022-08-11T17:57:19;5.90;;;5.07;;
34767;SDS011;21755;43.608;1.236;2022-08-11T18:00:06;7.43;;;5.90;;
34767;SDS011;21755;43.608;1.236;2022-08-11T18:02:33;7.22;;;5.55;;
34767;SDS011;21755;43.608;1.236;2022-08-11T18:05:22;6.18;;;5.38;;
34767;SDS011;21755;43.608;1.236;2022-08-11T18:07:56;9.07;;;5.13;;
34767;SDS011;21755;43.608;1.236;2022-08-11T18:10:42;7.05;;;5.38;;
34767;SDS011;21755;43.608;1.236;2022-08-11T18:13:29;6.30;;;5.07;;
34767;SDS011;21755;43.608;1.236;2022-08-11T18:16:16;7.10;;;5.28;;
34767;SDS011;21755;43.608;1.236;2022-08-11T18:19:01;5.68;;;4.88;;
34767;SDS011;21755;43.608;1.236;2022-08-11T18:21:46;6.53;;;5.50;;
34767;SDS011;21755;43.608;1.236;2022-08-11T18:24:37;6.88;;;5.80;;
34767;SDS011;21755;43.608;1.236;2022-08-11T18:27:28;10.20;;;5.70;;
34767;SDS011;21755;43.608;1.236;2022-08-11T18:30:15;6.47;;;5.43;;
34767;SDS011;21755;43.608;1.236;2022-08-11T18:33:00;9.45;;;6.32;;
34767;SDS011;21755;43.608;1.236;2022-08-11T18:35:48;7.05;;;6.35;;
34767;SDS011;21755;43.608;1.236;2022-08-11T18:38:35;7.18;;;6.30;;
34767;SDS011;21755;43.608;1.236;2022-08-11T18:41:24;6.13;;;5.40;;
34767;SDS011;21755;43.608;1.236;2022-08-11T18:44:10;7.65;;;5.93;;
34767;SDS011;21755;43.608;1.236;2022-08-11T18:46:58;6.55;;;5.95;;
34767;SDS011;21755;43.608;1.236;2022-08-11T18:49:51;7.43;;;5.88;;
34767;SDS011;21755;43.608;1.236;2022-08-11T18:52:36;9.55;;;6.20;;
34767;SDS011;21755;43.608;1.236;2022-08-11T18:55:25;6.22;;;5.63;;
34767;SDS011;21755;43.608;1.236;2022-08-11T18:58:11;9.45;;;5.75;;
34767;SDS011;21755;43.608;1.236;2022-08-11T19:01:00;6.03;;;5.53;;
34767;SDS011;21755;43.608;1.236;2022-08-11T19:03:46;5.78;;;5.18;;
34767;SDS011;21755;43.608;1.236;2022-08-11T19:06:31;6.78;;;6.10;;
34767;SDS011;21755;43.608;1.236;2022-08-11T19:09:19;7.93;;;6.45;;
34767;SDS011;21755;43.608;1.236;2022-08-11T19:12:05;10.95;;;6.05;;
34767;SDS011;21755;43.608;1.236;2022-08-11T19:14:51;6.32;;;5.72;;
34767;SDS011;21755;43.608;1.236;2022-08-11T19:17:40;10.65;;;5.88;;
34767;SDS011;21755;43.608;1.236;2022-08-11T19:20:27;9.55;;;6.13;;
34767;SDS011;21755;43.608;1.236;2022-08-11T19:23:14;6.85;;;6.15;;
34767;SDS011;21755;43.608;1.236;2022-08-11T19:26:03;8.40;;;5.13;;
34767;SDS011;21755;43.608;1.236;2022-08-11T19:28:50;7.50;;;5.70;;
34767;SDS011;21755;43.608;1.236;2022-08-11T19:31:36;7.38;;;6.20;;
34767;SDS011;21755;43.608;1.236;2022-08-11T19:34:22;7.30;;;5.93;;